Time;durP1;ratioP1;P1;durP2;ratioP2;P2;SDS_P1;SDS_P2;PMS_P1;PMS_P2;Temp;Humidity;BMP_temperature;BMP_pressure;BME280_temperature;BME280_humidity;BME280_pressure;Samples;Min_cycle;Max_cycle;Signal;HPM_P1;HPM_P2
2022/09/12 00:01:14;;;;;;;4.32;1.30;;;19.10;99.90;;;;;;6155803;23;20006;-78
2022/09/12 00:03:40;;;;;;;2.70;1.30;;;19.10;99.90;;;;;;6153940;23;20010;-77
2022/09/12 00:06:08;;;;;;;0.98;0.98;;;19.10;99.90;;;;;;6153903;23;20088;-77
2022/09/12 00:08:34;;;;;;;2.60;1.42;;;19.00;99.90;;;;;;6155589;23;20005;-78
2022/09/12 00:11:05;;;;;;;1.05;1.05;;;19.00;99.90;;;;;;6154301;23;20080;-78
2022/09/12 00:13:30;;;;;;;1.45;1.35;;;19.00;99.90;;;;;;6153842;23;20001;-77
2022/09/12 00:15:56;;;;;;;1.20;1.08;;;19.00;99.90;;;;;;6155665;23;20322;-77
2022/09/12 00:18:22;;;;;;;4.53;1.30;;;19.00;99.90;;;;;;6155670;23;20002;-77
2022/09/12 00:20:47;;;;;;;2.58;1.00;;;19.00;99.90;;;;;;6155785;23;20002;-77
2022/09/12 00:23:13;;;;;;;1.20;1.20;;;19.10;99.90;;;;;;6155646;23;20001;-77
2022/09/12 00:25:44;;;;;;;1.58;0.95;;;19.10;99.90;;;;;;6153874;23;20010;-78
2022/09/12 00:28:11;;;;;;;1.23;1.20;;;19.10;99.90;;;;;;6154067;23;20005;-77
2022/09/12 00:30:44;;;;;;;3.17;1.10;;;19.10;99.90;;;;;;6154011;23;20002;-77
2022/09/12 00:33:11;;;;;;;1.33;1.23;;;19.10;99.90;;;;;;6154090;23;20084;-77
2022/09/12 00:35:42;;;;;;;1.35;1.25;;;19.10;99.90;;;;;;6155399;23;20005;-78
2022/09/12 00:38:07;;;;;;;1.00;1.00;;;19.10;99.90;;;;;;6155524;23;20461;-77
2022/09/12 00:40:33;;;;;;;1.10;1.10;;;19.10;99.90;;;;;;6153776;23;20009;-78
2022/09/12 00:42:59;;;;;;;1.08;1.05;;;19.00;99.90;;;;;;6155458;23;20005;-77
2022/09/12 00:45:28;;;;;;;2.08;1.13;;;19.10;99.90;;;;;;6155338;23;20036;-77
2022/09/12 00:47:56;;;;;;;1.70;1.02;;;19.10;99.90;;;;;;6155505;23;20077;-78
2022/09/12 00:50:22;;;;;;;2.63;1.05;;;19.10;99.90;;;;;;6155527;23;20001;-77
2022/09/12 00:52:56;;;;;;;2.22;1.10;;;19.00;99.90;;;;;;6155518;23;20140;-77
2022/09/12 00:55:24;;;;;;;1.10;0.82;;;19.00;99.90;;;;;;6155281;23;20101;-77
2022/09/12 00:58:03;;;;;;;2.05;1.10;;;19.00;99.90;;;;;;6153964;23;20445;-77
2022/09/12 01:00:29;;;;;;;3.80;1.15;;;18.90;99.90;;;;;;6155290;23;20440;-78
2022/09/12 01:03:00;;;;;;;1.00;1.00;;;18.90;99.90;;;;;;6155357;23;20008;-77
2022/09/12 01:05:27;;;;;;;1.20;1.10;;;18.90;99.90;;;;;;6155279;23;20009;-77
2022/09/12 01:07:55;;;;;;;1.95;0.93;;;18.90;99.90;;;;;;6153837;23;20033;-78
2022/09/12 01:10:22;;;;;;;1.48;1.20;;;19.00;99.90;;;;;;6154103;23;20010;-77
2022/09/12 01:12:48;;;;;;;1.40;1.10;;;18.90;99.90;;;;;;6155451;23;20470;-77
2022/09/12 01:15:14;;;;;;;1.02;1.02;;;18.90;99.90;;;;;;6155146;23;20062;-77
2022/09/12 01:18:03;;;;;;;1.10;0.82;;;18.90;99.90;;;;;;6155252;23;19994;-78
2022/09/12 01:20:40;;;;;;;0.77;0.77;;;18.90;99.90;;;;;;6153713;23;20315;-77
2022/09/12 01:23:38;;;;;;;5.70;0.88;;;18.90;99.90;;;;;;6155152;23;19998;-77
2022/09/12 01:26:22;;;;;;;0.77;0.77;;;18.80;99.90;;;;;;6155410;23;20374;-78
2022/09/12 01:29:10;;;;;;;0.95;0.95;;;18.80;99.90;;;;;;6156900;23;20002;-77
2022/09/12 01:32:02;;;;;;;2.15;0.95;;;18.80;99.90;;;;;;6157231;23;20425;-77
2022/09/12 01:34:52;;;;;;;2.85;0.80;;;18.80;99.90;;;;;;6157056;23;20079;-77
2022/09/12 01:37:40;;;;;;;1.15;0.93;;;18.80;99.90;;;;;;6157152;23;20517;-77
2022/09/12 01:40:22;;;;;;;2.38;0.80;;;18.80;99.90;;;;;;6157411;23;20433;-78
2022/09/12 01:43:03;;;;;;;0.80;0.80;;;18.80;99.90;;;;;;6155459;23;20009;-78
2022/09/12 01:45:44;;;;;;;0.90;0.90;;;18.80;99.90;;;;;;6156849;23;20005;-77
2022/09/12 01:48:21;;;;;;;0.70;0.70;;;18.70;99.90;;;;;;6155521;23;20005;-78
2022/09/12 01:51:12;;;;;;;1.00;1.00;;;18.80;99.90;;;;;;6155286;23;20001;-77
2022/09/12 01:53:43;;;;;;;0.63;0.63;;;18.70;99.90;;;;;;6157343;23;20001;-78
2022/09/12 01:56:25;;;;;;;1.92;0.88;;;18.70;99.90;;;;;;6155132;23;20398;-77
2022/09/12 01:59:04;;;;;;;0.80;0.80;;;18.60;99.90;;;;;;6156982;23;20002;-77
2022/09/12 02:01:46;;;;;;;0.75;0.70;;;18.60;99.90;;;;;;6155386;23;20484;-77
2022/09/12 02:04:17;;;;;;;0.80;0.80;;;18.60;99.90;;;;;;6156849;23;20001;-77
2022/09/12 02:06:52;;;;;;;0.65;0.65;;;18.60;99.90;;;;;;6156739;23;20077;-77
2022/09/12 02:09:22;;;;;;;0.70;0.70;;;18.70;99.90;;;;;;6155232;23;20009;-77
2022/09/12 02:11:51;;;;;;;1.15;0.60;;;18.70;99.90;;;;;;6156989;23;20001;-77
2022/09/12 02:14:29;;;;;;;0.77;0.77;;;18.60;99.90;;;;;;6155218;23;20029;-77
2022/09/12 02:17:09;;;;;;;0.65;0.65;;;18.60;99.90;;;;;;6156740;23;20492;-77
2022/09/12 02:19:45;;;;;;;1.17;0.80;;;18.60;99.90;;;;;;6180169;23;20009;-77
2022/09/12 02:22:16;;;;;;;0.73;0.70;;;18.60;99.90;;;;;;6156603;23;20001;-77
2022/09/12 02:24:46;;;;;;;0.50;0.50;;;18.60;99.90;;;;;;6156840;23;20338;-77
2022/09/12 02:27:17;;;;;;;1.83;0.70;;;18.60;99.90;;;;;;6156664;23;20040;-77
2022/09/12 02:29:44;;;;;;;0.45;0.45;;;18.50;99.90;;;;;;6156454;23;20008;-77
2022/09/12 02:32:49;;;;;;;0.60;0.60;;;18.50;99.90;;;;;;6156654;23;20064;-77
2022/09/12 02:35:31;;;;;;;1.10;0.73;;;18.50;99.90;;;;;;6120725;23;20002;-77
2022/09/12 02:38:01;;;;;;;0.60;0.60;;;18.40;99.90;;;;;;6180038;23;20377;-77
2022/09/12 02:40:28;;;;;;;1.00;0.80;;;18.40;99.90;;;;;;6154914;23;20012;-77
2022/09/12 02:42:55;;;;;;;0.57;0.55;;;18.40;99.90;;;;;;6155011;23;20334;-78
2022/09/12 02:45:22;;;;;;;2.60;0.93;;;18.40;99.90;;;;;;6156396;23;20081;-78
2022/09/12 02:48:29;;;;;;;0.40;0.40;;;18.40;99.90;;;;;;6179664;23;20052;-77
2022/09/12 02:50:55;;;;;;;3.60;0.70;;;18.40;99.90;;;;;;6094889;23;20006;-77
2022/09/12 02:53:21;;;;;;;1.20;0.60;;;18.40;99.90;;;;;;6094979;23;20006;-77
2022/09/12 02:55:48;;;;;;;1.38;0.50;;;18.40;99.90;;;;;;6125136;23;20106;-77
2022/09/12 02:58:18;;;;;;;0.60;0.60;;;18.40;99.90;;;;;;6155055;23;20009;-77
2022/09/12 03:01:01;;;;;;;0.50;0.50;;;18.30;99.90;;;;;;6156231;23;20009;-77
2022/09/12 03:03:48;;;;;;;0.93;0.60;;;18.30;99.90;;;;;;6156280;23;20055;-77
2022/09/12 03:06:31;;;;;;;0.65;0.57;;;18.30;99.90;;;;;;6154590;23;20084;-77
2022/09/12 03:09:06;;;;;;;0.50;0.50;;;18.20;99.90;;;;;;6156226;23;20338;-77
2022/09/12 03:12:08;;;;;;;0.73;0.60;;;18.30;99.90;;;;;;6154663;23;20449;-77
2022/09/12 03:15:09;;;;;;;2.45;0.50;;;18.30;99.90;;;;;;6156213;23;19998;-77
2022/09/12 03:17:50;;;;;;;1.92;0.70;;;18.20;99.90;;;;;;6156159;23;20457;-77
2022/09/12 03:20:43;;;;;;;0.60;0.60;;;18.20;99.90;;;;;;6156285;23;20029;-77
2022/09/12 03:23:23;;;;;;;0.70;0.70;;;18.20;99.90;;;;;;6132856;23;20009;-77
2022/09/12 03:25:55;;;;;;;0.60;0.60;;;18.20;99.90;;;;;;6156197;23;20401;-77
2022/09/12 03:28:22;;;;;;;0.40;0.40;;;18.20;99.90;;;;;;6154226;23;20152;-77
2022/09/12 03:30:53;;;;;;;2.53;0.73;;;18.20;99.90;;;;;;6154466;23;20012;-77
2022/09/12 03:33:21;;;;;;;0.60;0.60;;;18.20;99.90;;;;;;6156038;23;20080;-77
2022/09/12 03:35:48;;;;;;;0.85;0.70;;;18.20;99.90;;;;;;6155748;23;20001;-77
2022/09/12 03:38:13;;;;;;;0.70;0.60;;;18.20;99.90;;;;;;6154296;23;20002;-77
2022/09/12 03:40:39;;;;;;;0.50;0.50;;;18.20;99.90;;;;;;6154301;23;20033;-77
2022/09/12 03:43:06;;;;;;;0.52;0.52;;;18.30;99.90;;;;;;6154360;23;20002;-78
2022/09/12 03:45:33;;;;;;;0.52;0.52;;;18.30;99.90;;;;;;6155518;23;20025;-77
2022/09/12 03:47:58;;;;;;;0.60;0.60;;;18.20;99.90;;;;;;6154082;23;20337;-77
2022/09/12 03:50:24;;;;;;;0.57;0.57;;;18.20;99.90;;;;;;6154146;23;20005;-77
2022/09/12 03:52:50;;;;;;;0.73;0.73;;;18.20;99.90;;;;;;6155728;23;20002;-77
2022/09/12 03:55:16;;;;;;;3.13;0.93;;;18.10;99.90;;;;;;6155440;23;20009;-77
2022/09/12 03:57:42;;;;;;;0.88;0.77;;;18.20;99.90;;;;;;6154133;23;20040;-77
2022/09/12 04:00:08;;;;;;;0.55;0.55;;;18.20;99.90;;;;;;6155902;23;20005;-77
2022/09/12 04:02:34;;;;;;;1.35;0.90;;;18.20;99.90;;;;;;6155565;23;20008;-77
2022/09/12 04:05:00;;;;;;;0.55;0.55;;;18.20;99.90;;;;;;6155058;23;20009;-77
2022/09/12 04:07:26;;;;;;;0.70;0.70;;;18.20;99.90;;;;;;6153800;23;20012;-77
2022/09/12 04:09:52;;;;;;;0.60;0.60;;;18.30;99.90;;;;;;6153694;23;20012;-77
2022/09/12 04:12:18;;;;;;;0.63;0.63;;;18.20;99.90;;;;;;6178753;23;20005;-77
2022/09/12 04:14:44;;;;;;;1.52;0.60;;;18.20;99.90;;;;;;6155645;23;19997;-79
2022/09/12 04:17:10;;;;;;;1.60;0.70;;;18.10;99.90;;;;;;6155356;23;20051;-78
2022/09/12 04:19:36;;;;;;;1.67;0.73;;;18.10;99.90;;;;;;6155661;23;20001;-77
2022/09/12 04:22:02;;;;;;;0.80;0.80;;;18.10;99.90;;;;;;6155419;23;20618;-77
2022/09/12 04:24:28;;;;;;;4.15;0.60;;;18.10;99.90;;;;;;6155467;23;20085;-77
2022/09/12 04:26:54;;;;;;;0.98;0.88;;;18.10;99.90;;;;;;6154049;23;20041;-77
2022/09/12 04:29:20;;;;;;;0.98;0.80;;;18.10;99.90;;;;;;6155578;23;20002;-77
2022/09/12 04:31:45;;;;;;;0.77;0.77;;;18.10;99.90;;;;;;6154563;23;20081;-79
2022/09/12 04:34:11;;;;;;;3.55;0.60;;;18.00;99.90;;;;;;6153566;23;20001;-79
2022/09/12 04:36:37;;;;;;;0.98;0.70;;;17.90;99.90;;;;;;6153504;23;20504;-79
2022/09/12 04:39:09;;;;;;;0.80;0.80;;;17.90;99.90;;;;;;6155279;23;20010;-79
2022/09/12 04:41:37;;;;;;;2.47;0.93;;;17.90;99.90;;;;;;6154739;23;19994;-79
2022/09/12 04:44:05;;;;;;;1.92;1.00;;;17.90;99.90;;;;;;6153420;23;20009;-79
2022/09/12 04:46:34;;;;;;;1.30;1.20;;;17.80;99.90;;;;;;6153796;23;20048;-82
2022/09/12 04:49:00;;;;;;;0.80;0.80;;;17.90;99.90;;;;;;6153283;23;20005;-82
2022/09/12 04:51:29;;;;;;;0.90;0.90;;;17.80;99.90;;;;;;6154918;23;20001;-82
2022/09/12 04:53:58;;;;;;;2.60;1.10;;;17.80;99.90;;;;;;6153453;23;20477;-81
2022/09/12 04:56:26;;;;;;;0.82;0.80;;;17.90;99.90;;;;;;6154225;23;20129;-82
2022/09/12 04:58:52;;;;;;;1.00;0.80;;;17.90;99.90;;;;;;6154448;23;20005;-81
2022/09/12 05:01:21;;;;;;;0.93;0.90;;;18.00;99.90;;;;;;6155108;23;20036;-77
2022/09/12 05:03:48;;;;;;;0.93;0.88;;;18.00;99.90;;;;;;6153877;23;20339;-77
2022/09/12 05:06:21;;;;;;;0.77;0.77;;;18.00;99.90;;;;;;6156284;23;20010;-78
2022/09/12 05:08:46;;;;;;;1.50;0.85;;;18.00;99.90;;;;;;6156036;23;20056;-77
2022/09/12 05:11:14;;;;;;;4.30;1.42;;;18.00;99.90;;;;;;6180158;23;20009;-77
2022/09/12 05:13:41;;;;;;;1.20;1.05;;;18.10;99.90;;;;;;6155443;23;20012;-77
2022/09/12 05:16:09;;;;;;;2.75;1.27;;;18.10;99.90;;;;;;6157244;23;20002;-77
2022/09/12 05:18:35;;;;;;;2.40;0.98;;;18.10;99.90;;;;;;6155241;23;20033;-77
2022/09/12 05:21:03;;;;;;;1.23;1.13;;;18.10;99.90;;;;;;6180334;23;20005;-77
2022/09/12 05:23:29;;;;;;;1.05;1.00;;;18.20;99.90;;;;;;6155525;23;20105;-77
2022/09/12 05:25:57;;;;;;;1.13;1.10;;;18.10;99.90;;;;;;6157128;23;20433;-77
2022/09/12 05:28:27;;;;;;;3.80;1.38;;;18.20;99.90;;;;;;6157360;23;20059;-77
2022/09/12 05:31:04;;;;;;;2.50;1.25;;;18.20;99.90;;;;;;6157209;23;20005;-77
2022/09/12 05:33:31;;;;;;;1.67;0.85;;;18.20;99.90;;;;;;6157252;23;20445;-77
2022/09/12 05:35:56;;;;;;;1.17;1.05;;;18.20;99.90;;;;;;6156918;23;20004;-77
2022/09/12 05:38:25;;;;;;;2.05;0.95;;;18.20;99.90;;;;;;6155455;23;20390;-77
2022/09/12 05:40:51;;;;;;;5.00;1.20;;;18.30;99.90;;;;;;6155495;23;20012;-77
2022/09/12 05:43:17;;;;;;;2.05;1.15;;;18.40;99.90;;;;;;6156940;23;20005;-77
2022/09/12 05:45:42;;;;;;;1.15;0.90;;;18.40;99.90;;;;;;6156755;23;20446;-77
2022/09/12 05:48:08;;;;;;;0.90;0.90;;;18.40;99.90;;;;;;6157043;23;19998;-77
2022/09/12 05:50:34;;;;;;;1.00;0.88;;;18.40;99.90;;;;;;6157071;23;20009;-77
2022/09/12 05:53:00;;;;;;;1.48;1.00;;;18.50;99.90;;;;;;6155316;23;20001;-77
2022/09/12 05:55:25;;;;;;;1.13;0.90;;;18.50;99.90;;;;;;6155024;23;20045;-77
2022/09/12 05:57:51;;;;;;;2.38;0.90;;;18.50;99.90;;;;;;6155393;23;20042;-77
2022/09/12 06:00:18;;;;;;;3.90;0.90;;;18.40;99.90;;;;;;6156743;23;20008;-77
2022/09/12 06:02:43;;;;;;;5.03;1.05;;;18.40;99.90;;;;;;6156758;23;20006;-77
2022/09/12 06:05:09;;;;;;;0.90;0.90;;;18.50;99.90;;;;;;6156623;23;20012;-77
2022/09/12 06:07:35;;;;;;;2.67;1.17;;;18.50;99.90;;;;;;6156615;23;20338;-77
2022/09/12 06:10:03;;;;;;;1.20;1.10;;;18.60;99.90;;;;;;6156809;23;20076;-77
2022/09/12 06:12:29;;;;;;;1.60;0.95;;;18.70;99.90;;;;;;6154752;23;20081;-77
2022/09/12 06:14:55;;;;;;;1.00;0.90;;;18.80;99.90;;;;;;6155249;23;20040;-77
2022/09/12 06:17:21;;;;;;;0.80;0.80;;;18.90;99.90;;;;;;6156879;23;20001;-78
2022/09/12 06:19:49;;;;;;;1.63;0.88;;;19.00;99.90;;;;;;6156729;23;20036;-77
2022/09/12 06:22:16;;;;;;;0.60;0.60;;;19.10;99.90;;;;;;6155109;23;20342;-77
2022/09/12 06:24:42;;;;;;;1.00;1.00;;;19.10;99.90;;;;;;6156610;23;20385;-77
2022/09/12 06:27:08;;;;;;;1.25;1.00;;;19.20;99.90;;;;;;6155029;23;20009;-77
2022/09/12 06:29:33;;;;;;;0.82;0.60;;;19.20;99.90;;;;;;6154864;23;20445;-77
2022/09/12 06:31:59;;;;;;;0.50;0.50;;;19.30;99.90;;;;;;6156551;23;20033;-77
2022/09/12 06:34:25;;;;;;;2.97;0.60;;;19.30;99.90;;;;;;6156339;23;20013;-77
2022/09/12 06:36:51;;;;;;;0.77;0.57;;;19.40;99.90;;;;;;6179617;23;20006;-77
2022/09/12 06:39:21;;;;;;;1.77;0.80;;;19.40;99.90;;;;;;6156596;23;20448;-77
2022/09/12 06:41:48;;;;;;;0.50;0.50;;;19.50;99.90;;;;;;6156526;23;20037;-77
2022/09/12 06:44:17;;;;;;;1.02;1.02;;;19.60;99.90;;;;;;6154785;23;20016;-77
2022/09/12 06:46:43;;;;;;;0.50;0.50;;;19.60;99.90;;;;;;6154690;23;20064;-78
2022/09/12 06:49:09;;;;;;;4.45;0.73;;;19.70;99.90;;;;;;6156212;23;20008;-77
2022/09/12 06:51:35;;;;;;;0.60;0.60;;;19.70;99.90;;;;;;6154951;23;20005;-77
2022/09/12 06:54:02;;;;;;;0.77;0.77;;;19.70;99.90;;;;;;6156285;23;20450;-77
2022/09/12 06:56:28;;;;;;;0.85;0.73;;;19.70;99.90;;;;;;6154667;23;20021;-77
2022/09/12 06:58:57;;;;;;;2.10;1.42;;;19.80;99.90;;;;;;6179564;23;20136;-77
2022/09/12 07:01:29;;;;;;;1.52;0.90;;;19.80;99.90;;;;;;6156419;23;20013;-77
2022/09/12 07:03:58;;;;;;;0.60;0.60;;;19.90;99.90;;;;;;6154500;23;20016;-77
2022/09/12 07:06:30;;;;;;;4.10;0.90;;;19.90;99.90;;;;;;6179673;23;20002;-77
2022/09/12 07:08:58;;;;;;;0.88;0.80;;;20.00;99.90;;;;;;6156093;23;20006;-77
2022/09/12 07:11:26;;;;;;;0.90;0.90;;;20.00;99.90;;;;;;6156175;23;20465;-78
2022/09/12 07:13:55;;;;;;;0.90;0.90;;;20.00;99.90;;;;;;6154436;23;20006;-77
2022/09/12 07:16:21;;;;;;;0.70;0.70;;;20.10;99.90;;;;;;6154492;23;20084;-77
2022/09/12 07:18:54;;;;;;;0.60;0.60;;;20.10;99.90;;;;;;6154593;23;20001;-77
2022/09/12 07:21:21;;;;;;;0.90;0.90;;;20.20;99.90;;;;;;6155850;23;20005;-77
2022/09/12 07:23:48;;;;;;;1.20;1.10;;;20.20;99.90;;;;;;6154231;23;20009;-77
2022/09/12 07:26:14;;;;;;;0.77;0.70;;;20.30;99.90;;;;;;6156047;23;20005;-77
2022/09/12 07:28:41;;;;;;;0.80;0.80;;;20.30;99.90;;;;;;6154088;23;20010;-77
2022/09/12 07:31:08;;;;;;;0.98;0.90;;;20.40;99.90;;;;;;6154057;23;20001;-77
2022/09/12 07:33:34;;;;;;;0.70;0.70;;;20.40;99.90;;;;;;6154145;23;20334;-77
2022/09/12 07:36:11;;;;;;;3.30;0.88;;;20.50;99.90;;;;;;6156057;23;20307;-77
2022/09/12 07:38:40;;;;;;;1.27;0.57;;;20.50;99.90;;;;;;6153998;23;20009;-77
2022/09/12 07:41:17;;;;;;;2.80;0.73;;;20.60;99.90;;;;;;6155924;23;20005;-77
2022/09/12 07:43:43;;;;;;;1.13;0.80;;;20.70;99.90;;;;;;6155704;23;20029;-77
2022/09/12 07:46:09;;;;;;;1.15;0.77;;;20.80;99.90;;;;;;6155974;23;20005;-77
2022/09/12 07:48:36;;;;;;;0.73;0.73;;;20.90;99.90;;;;;;6155554;23;19997;-78
2022/09/12 07:51:08;;;;;;;1.48;0.80;;;21.00;99.90;;;;;;6156086;23;20482;-77
2022/09/12 07:53:39;;;;;;;1.23;1.13;;;21.10;99.90;;;;;;6179455;23;20005;-77
2022/09/12 07:56:06;;;;;;;0.77;0.60;;;21.10;99.90;;;;;;6156112;23;20089;-77
2022/09/12 07:58:34;;;;;;;0.77;0.77;;;21.20;99.90;;;;;;6156182;23;20002;-77
2022/09/12 08:01:23;;;;;;;1.38;0.70;;;21.30;99.90;;;;;;6156218;23;20454;-77
2022/09/12 08:03:54;;;;;;;0.95;0.95;;;21.30;99.90;;;;;;6155907;23;20080;-77
2022/09/12 08:06:24;;;;;;;3.28;1.38;;;21.40;99.90;;;;;;6155905;23;20052;-77
2022/09/12 08:08:51;;;;;;;0.90;0.70;;;21.50;99.90;;;;;;6156089;23;20005;-77
2022/09/12 08:11:20;;;;;;;0.80;0.80;;;21.50;99.90;;;;;;6154345;23;20088;-77
2022/09/12 08:13:47;;;;;;;0.70;0.70;;;21.60;99.90;;;;;;6154439;23;20075;-77
2022/09/12 08:16:20;;;;;;;1.17;0.88;;;21.70;99.90;;;;;;6155855;23;20009;-77
2022/09/12 08:18:46;;;;;;;2.25;0.73;;;21.70;99.90;;;;;;6155765;23;20002;-77
2022/09/12 08:21:17;;;;;;;0.80;0.80;;;21.70;99.90;;;;;;6155844;23;20419;-77
2022/09/12 08:23:43;;;;;;;0.73;0.73;;;21.80;99.90;;;;;;6154231;23;20405;-77
2022/09/12 08:26:10;;;;;;;2.92;1.00;;;21.90;99.90;;;;;;6155681;23;20013;-77
2022/09/12 08:28:39;;;;;;;1.15;1.05;;;22.00;99.90;;;;;;6154026;23;20006;-77
2022/09/12 08:31:11;;;;;;;1.08;0.88;;;22.10;99.90;;;;;;6155589;23;20076;-77
2022/09/12 08:33:37;;;;;;;1.20;1.00;;;22.10;99.90;;;;;;6153930;23;20014;-77
2022/09/12 08:36:23;;;;;;;1.73;1.05;;;22.20;99.90;;;;;;6155545;23;19998;-77
2022/09/12 08:38:57;;;;;;;3.08;1.00;;;22.20;99.90;;;;;;6153720;23;20330;-77
2022/09/12 08:41:54;;;;;;;1.35;1.25;;;22.30;99.90;;;;;;6154378;23;20089;-77
2022/09/12 08:44:38;;;;;;;3.00;1.00;;;22.30;99.90;;;;;;6153573;23;20010;-78
2022/09/12 08:47:13;;;;;;;2.33;1.10;;;22.30;99.90;;;;;;6155912;23;20001;-77
2022/09/12 08:50:14;;;;;;;1.85;1.25;;;22.40;99.90;;;;;;6155382;23;20052;-77
2022/09/12 08:52:49;;;;;;;1.45;1.10;;;22.40;99.90;;;;;;6142612;23;20002;-77
2022/09/12 08:55:37;;;;;;;1.85;1.05;;;22.40;99.90;;;;;;6155178;23;20043;-77
2022/09/12 08:58:21;;;;;;;4.38;1.20;;;22.50;99.90;;;;;;6154093;23;20098;-77
2022/09/12 09:01:24;;;;;;;1.00;1.00;;;22.50;99.90;;;;;;6153856;23;20010;-77
2022/09/12 09:04:13;;;;;;;2.50;1.33;;;22.50;99.90;;;;;;6155361;23;19997;-77
2022/09/12 09:06:51;;;;;;;2.35;1.85;;;22.60;99.90;;;;;;6155755;23;20056;-77
2022/09/12 09:09:43;;;;;;;1.55;1.45;;;22.60;99.90;;;;;;6155447;23;20005;-77
2022/09/12 09:12:27;;;;;;;;;;;22.60;99.90;;;;;;6155875;23;19998;-77
2022/09/12 09:15:32;;;;;;;4.88;1.23;;;22.70;99.90;;;;;;6152164;23;19900;-77
2022/09/12 09:18:15;;;;;;;1.20;1.02;;;22.70;99.90;;;;;;6144577;23;20084;-77
2022/09/12 09:20:48;;;;;;;1.05;1.05;;;22.70;99.90;;;;;;6153824;23;20338;-78
2022/09/12 09:23:32;;;;;;;2.67;0.95;;;22.70;99.90;;;;;;6153747;23;20390;-77
2022/09/12 09:26:25;;;;;;;2.20;1.02;;;22.70;99.90;;;;;;6155478;23;20025;-77
2022/09/12 09:28:59;;;;;;;2.15;0.80;;;22.70;99.90;;;;;;6147627;23;20357;-77
2022/09/12 09:31:32;;;;;;;1.23;1.10;;;22.70;99.90;;;;;;6153561;23;20028;-77
2022/09/12 09:33:58;;;;;;;1.15;0.90;;;22.70;99.90;;;;;;6155294;23;20095;-77
2022/09/12 09:36:42;;;;;;;2.97;1.00;;;22.70;99.90;;;;;;6178437;23;20334;-77
2022/09/12 09:39:21;;;;;;;1.33;0.98;;;22.70;99.90;;;;;;6155218;23;20006;-77
2022/09/12 09:41:52;;;;;;;1.50;0.88;;;22.80;99.90;;;;;;6153722;23;20010;-77
2022/09/12 09:44:18;;;;;;;1.25;0.75;;;22.80;99.90;;;;;;6153559;23;20060;-77
2022/09/12 09:46:44;;;;;;;1.23;0.85;;;22.80;99.90;;;;;;6155303;23;20009;-77
2022/09/12 09:49:13;;;;;;;2.30;0.77;;;22.80;99.90;;;;;;6156957;23;20055;-77
2022/09/12 09:51:41;;;;;;;0.85;0.85;;;22.90;99.90;;;;;;6157030;23;20058;-77
2022/09/12 09:54:15;;;;;;;1.20;0.88;;;23.00;99.90;;;;;;6156837;23;19998;-77
2022/09/12 09:56:41;;;;;;;0.80;0.80;;;23.10;99.90;;;;;;6156720;23;20010;-77
2022/09/12 09:59:15;;;;;;;0.88;0.88;;;23.10;99.90;;;;;;6157042;23;20001;-77
2022/09/12 10:02:19;;;;;;;1.95;1.30;;;23.20;99.90;;;;;;6157007;23;20011;-77
2022/09/12 10:04:57;;;;;;;1.95;1.75;;;23.20;99.90;;;;;;6156800;23;20437;-77
2022/09/12 10:07:24;;;;;;;1.48;1.30;;;23.30;99.90;;;;;;6154875;23;20033;-77
2022/09/12 10:10:13;;;;;;;0.90;0.90;;;23.30;99.90;;;;;;6156795;23;20426;-77
2022/09/12 10:12:39;;;;;;;2.70;1.10;;;23.40;99.90;;;;;;6155272;23;20430;-77
2022/09/12 10:15:19;;;;;;;2.40;1.20;;;23.40;99.90;;;;;;6156950;23;20025;-77
2022/09/12 10:17:47;;;;;;;1.55;1.35;;;23.40;99.90;;;;;;6156169;23;20000;-77
2022/09/12 10:20:45;;;;;;;3.58;1.33;;;23.40;99.90;;;;;;6155627;23;20055;-77
2022/09/12 10:23:35;;;;;;;1.45;1.25;;;23.40;99.90;;;;;;6153835;23;20037;-77
2022/09/12 10:26:07;;;;;;;3.08;1.17;;;23.40;99.90;;;;;;6155677;23;20040;-77
2022/09/12 10:28:40;;;;;;;3.50;1.40;;;23.50;99.90;;;;;;6156455;23;20060;-77
2022/09/12 10:31:09;;;;;;;4.93;1.38;;;23.50;99.90;;;;;;6155010;23;20059;-77
2022/09/12 10:33:42;;;;;;;1.27;1.17;;;23.50;99.90;;;;;;6156282;23;20068;-77
2022/09/12 10:36:08;;;;;;;6.72;1.50;;;23.50;99.90;;;;;;6156292;23;20117;-77
2022/09/12 10:38:34;;;;;;;3.53;1.58;;;23.50;99.90;;;;;;6156471;23;20030;-77
2022/09/12 10:41:08;;;;;;;2.38;1.75;;;23.50;99.90;;;;;;6156272;23;20445;-77
2022/09/12 10:43:36;;;;;;;2.22;1.55;;;23.60;99.90;;;;;;6156364;23;20580;-77
2022/09/12 10:46:16;;;;;;;1.73;1.58;;;23.70;99.90;;;;;;6154933;23;20337;-77
2022/09/12 10:48:44;;;;;;;3.03;1.63;;;23.70;99.90;;;;;;6154823;23;20010;-77
2022/09/12 10:51:24;;;;;;;2.10;2.00;;;23.80;99.90;;;;;;6156345;23;20060;-77
2022/09/12 10:53:58;;;;;;;4.82;2.03;;;23.90;99.90;;;;;;6154235;23;20009;-77
2022/09/12 10:56:30;;;;;;;3.55;2.22;;;23.90;99.90;;;;;;6156012;23;20013;-77
2022/09/12 10:59:13;;;;;;;6.25;2.20;;;23.90;99.90;;;;;;6156304;23;20306;-77
2022/09/12 11:01:45;;;;;;;4.88;1.70;;;23.90;99.90;;;;;;6155034;23;20006;-77
2022/09/12 11:04:56;;;;;;;4.22;1.77;;;24.00;99.90;;;;;;6154786;23;20330;-77
2022/09/12 11:07:36;;;;;;;4.75;1.90;;;24.10;99.90;;;;;;6156226;23;20001;-78
2022/09/12 11:10:08;;;;;;;2.58;1.98;;;24.20;99.90;;;;;;6156142;23;20009;-77
2022/09/12 11:12:52;;;;;;;2.70;2.50;;;24.20;99.90;;;;;;6156281;23;20457;-77
2022/09/12 11:16:00;;;;;;;2.30;2.10;;;24.20;99.90;;;;;;6154357;23;20358;-77
2022/09/12 11:18:47;;;;;;;3.75;2.40;;;24.30;99.90;;;;;;6156344;23;20434;-77
2022/09/12 11:21:16;;;;;;;2.80;2.60;;;24.40;99.90;;;;;;6156514;23;20025;-77
2022/09/12 11:24:06;;;;;;;3.42;2.58;;;24.50;99.90;;;;;;6155784;23;20029;-77
2022/09/12 11:26:57;;;;;;;5.07;3.22;;;24.60;99.90;;;;;;6154315;23;20001;-77
2022/09/12 11:29:42;;;;;;;3.47;2.30;;;24.60;99.90;;;;;;6120350;23;20009;-77
2022/09/12 11:32:32;;;;;;;5.30;2.70;;;24.80;99.90;;;;;;6156177;23;19998;-77
2022/09/12 11:35:27;;;;;;;3.15;2.60;;;24.90;99.90;;;;;;6154298;23;20048;-77
2022/09/12 11:38:06;;;;;;;3.70;2.60;;;25.00;99.90;;;;;;6155979;23;19997;-77
2022/09/12 11:40:51;;;;;;;2.72;2.50;;;25.30;99.90;;;;;;6154625;23;20031;-77
2022/09/12 11:43:27;;;;;;;3.58;3.28;;;25.30;99.90;;;;;;6154206;23;20442;-77
2022/09/12 11:45:55;;;;;;;3.08;2.80;;;25.40;99.90;;;;;;6155835;23;20059;-77
2022/09/12 11:48:32;;;;;;;3.13;2.30;;;25.30;99.90;;;;;;6156190;23;20457;-77
2022/09/12 11:51:01;;;;;;;2.97;2.63;;;25.20;99.90;;;;;;6154276;23;20002;-77
2022/09/12 11:53:33;;;;;;;3.08;2.70;;;25.20;99.90;;;;;;6154108;23;20010;-77
2022/09/12 11:56:09;;;;;;;6.07;2.58;;;25.20;99.90;;;;;;6155729;23;20013;-77
2022/09/12 11:58:37;;;;;;;5.10;2.88;;;25.20;99.90;;;;;;6155765;23;20419;-77
2022/09/12 12:01:16;;;;;;;4.15;3.08;;;25.10;99.90;;;;;;6155717;23;20009;-77
2022/09/12 12:03:44;;;;;;;3.95;3.42;;;25.00;99.90;;;;;;6154135;23;20014;-77
2022/09/12 12:06:18;;;;;;;5.00;2.65;;;25.00;99.90;;;;;;6153889;23;20014;-77
2022/09/12 12:08:45;;;;;;;2.60;2.40;;;25.10;99.90;;;;;;6155597;23;20009;-77
2022/09/12 12:11:25;;;;;;;3.35;3.08;;;25.20;99.90;;;;;;6153653;23;20002;-77
2022/09/12 12:13:56;;;;;;;3.40;2.95;;;25.20;99.90;;;;;;6155589;23;20004;-77
2022/09/12 12:16:33;;;;;;;5.03;2.50;;;25.20;99.90;;;;;;6155634;23;19998;-77
2022/09/12 12:19:02;;;;;;;7.22;2.65;;;25.00;99.90;;;;;;6155752;23;20012;-77
2022/09/12 12:21:28;;;;;;;5.03;2.30;;;25.00;99.90;;;;;;6178622;23;20005;-77
2022/09/12 12:24:15;;;;;;;2.67;2.28;;;25.00;99.90;;;;;;6153852;23;20434;-77
2022/09/12 12:26:59;;;;;;;2.65;2.45;;;25.00;99.90;;;;;;6154078;23;20016;-77
2022/09/12 12:29:34;;;;;;;3.50;2.22;;;25.10;99.90;;;;;;6153263;23;20040;-77
2022/09/12 12:32:02;;;;;;;3.42;2.22;;;25.10;99.90;;;;;;6153895;23;20011;-77
2022/09/12 12:34:41;;;;;;;2.40;2.17;;;25.20;99.90;;;;;;6155553;23;20350;-77
2022/09/12 12:37:24;;;;;;;2.85;2.50;;;25.20;99.90;;;;;;6153963;23;20009;-77
2022/09/12 12:39:50;;;;;;;3.95;2.05;;;25.50;99.90;;;;;;6153758;23;20318;-77
2022/09/12 12:42:34;;;;;;;2.17;1.98;;;25.70;99.90;;;;;;6155499;23;20001;-77
2022/09/12 12:45:28;;;;;;;5.05;2.45;;;25.80;99.90;;;;;;6155511;23;20028;-77
2022/09/12 12:48:00;;;;;;;1.90;1.80;;;25.90;99.90;;;;;;6155372;23;20346;-77
2022/09/12 12:50:29;;;;;;;1.98;1.77;;;26.00;99.90;;;;;;6153393;23;20430;-77
2022/09/12 12:52:59;;;;;;;2.20;1.70;;;25.90;99.90;;;;;;6153534;23;20039;-77
2022/09/12 12:55:37;;;;;;;1.90;1.73;;;25.70;99.90;;;;;;6153710;23;20025;-77
2022/09/12 12:58:35;;;;;;;1.70;1.60;;;25.70;99.90;;;;;;6155469;23;20021;-77
2022/09/12 13:01:21;;;;;;;1.55;1.45;;;25.70;99.90;;;;;;6150934;23;20012;-77
2022/09/12 13:04:01;;;;;;;2.47;1.83;;;25.80;99.90;;;;;;6153615;23;20058;-77
2022/09/12 13:06:37;;;;;;;2.38;1.70;;;26.00;99.90;;;;;;6155713;23;20314;-77
2022/09/12 13:09:23;;;;;;;4.03;2.42;;;26.10;99.90;;;;;;6153968;23;20076;-78
2022/09/12 13:12:07;;;;;;;2.35;2.05;;;26.30;99.90;;;;;;6163096;23;20088;-77
2022/09/12 13:14:50;;;;;;;6.63;1.80;;;26.40;99.90;;;;;;6155340;23;20139;-77
2022/09/12 13:17:31;;;;;;;2.03;1.73;;;26.60;99.90;;;;;;6155545;23;19997;-77
2022/09/12 13:20:21;;;;;;;2.03;1.85;;;26.70;99.90;;;;;;6155900;23;20354;-77